Coraopolis, PA (15108)

4:45 PM EST on February 07, 2016 (GMT -0500)
Moon Township | | Change Station
CLOSE
Current Station
Personal Weather Station
Location: Moon Township, PA
Elevation: 1073 ft
Nearby Weather Stations

Elev 1073 ft 40.52 °N, 80.20 °W | Updated 11 minutes ago

Scattered Clouds
Scattered Clouds
49.3 °F
Feels Like 49 °F
N
2.2
Wind Variable Wind from West

Today
High -- | Low -- °F
--% Chance of Precip.
Yesterday
High -- | Low -- °F
Precip. -- in
Pressure 29.97 in
Visibility 10.0 miles
Clouds Few 6000 ft
Scattered Clouds 25000 ft
Windchill 49 °F
Dew Point 25 °F
Humidity 38%
Rainfall 0.00 in
Snow Depth Not available.
7:24 AM 5:45 PM
Waning Crescent, 1% visible
METAR KPIT 072051Z 23007KT 10SM FEW060 SCT250 10/M07 A2992 RMK AO2 SLP147 T01001072 56032
Pressure 29.97 in
Visibility 10.0 miles
Clouds Few 6000 ft
Scattered Clouds 25000 ft
Windchill 49 °F
Dew Point 25 °F
Humidity 38%
Rainfall 0.00 in
Snow Depth Not available.
7:24 AM 5:45 PM
Waning Crescent, 1% visible
METAR KPIT 072051Z 23007KT 10SM FEW060 SCT250 10/M07 A2992 RMK AO2 SLP147 T01001072 56032

10-Day Weather Forecast

Almanac

Astronomy

Feb. 07, 2016 Rise Set
Actual Time
Civil Twilight
Nautical Twilight
Astronomical Twilight
Moon
Length of Visible Light
Length of Day
Tomorrow will be .
, % of the Moon is Illuminated

Today's Extremes

State Highs State Lows

Community

WunderPhotos

Upload Photos

1,891,304 photos uploaded!

WunderBlog® & News

Nearby

Air Quality

  Air Quality AQ Index Pollutant
Not available.

Snow Depth

Station Depth Elevation

Earthquake Activity

City Distance Mag. Time & Date
Minimum magnitude displayed is 2.5.

Coastal Water Temperatures

Place Temperature

Stations

Nearby Weather Stations

Station Location Temp. Windchill Dew Point Humidity Wind Precip. Elev Updated Type
                   

Watches & Warnings

There are currently no watches in effect.